Time;durP1;ratioP1;P1;durP2;ratioP2;P2;SDS_P1;SDS_P2;PMS_P1;PMS_P2;Temp;Humidity;BMP_temperature;BMP_pressure;BME280_temperature;BME280_humidity;BME280_pressure;Samples;Min_cycle;Max_cycle;Signal;HPM_P1;HPM_P2
2022/10/11 00:00:15;;;;;;;10.48;4.68;;;;;;;12.03;67.20;100706.28;2056232;28;20039;-71
2022/10/11 00:01:17;;;;;;;10.15;4.60;;;;;;;11.98;67.32;100704.44;2047812;29;20044;-71
2022/10/11 00:02:24;;;;;;;10.77;4.97;;;;;;;11.98;67.79;100703.63;2048532;28;20070;-71
2022/10/11 00:03:28;;;;;;;10.07;5.25;;;;;;;11.98;68.25;100711.69;2056895;28;20030;-71
2022/10/11 00:04:31;;;;;;;9.15;4.55;;;;;;;11.97;67.89;100712.78;2055940;28;20039;-71
2022/10/11 00:05:40;;;;;;;13.88;4.72;;;;;;;11.93;67.77;100712.56;2056398;28;20050;-70
2022/10/11 00:06:42;;;;;;;11.60;4.68;;;;;;;11.92;68.08;100704.78;2063505;28;20061;-69
2022/10/11 00:07:45;;;;;;;8.40;4.57;;;;;;;11.90;68.12;100701.56;2063399;28;20525;-70
2022/10/11 00:08:47;;;;;;;10.27;4.93;;;;;;;11.83;68.34;100699.97;2040425;29;20366;-71
2022/10/11 00:09:50;;;;;;;8.88;4.70;;;;;;;11.75;68.55;100702.47;2039672;28;20393;-70
2022/10/11 00:10:59;;;;;;;11.48;4.75;;;;;;;11.73;68.88;100704.66;2063724;28;20042;-71
2022/10/11 00:12:05;;;;;;;9.63;4.78;;;;;;;11.73;68.86;100713.53;2072068;28;20529;-71
2022/10/11 00:13:11;;;;;;;11.70;5.28;;;;;;;11.72;69.11;100701.13;2071626;28;20046;-70
2022/10/11 00:14:15;;;;;;;12.13;5.03;;;;;;;11.72;69.10;100716.47;2064013;28;20038;-70
2022/10/11 00:15:21;;;;;;;11.43;5.22;;;;;;;11.73;69.18;100702.75;2056306;28;20035;-69
2022/10/11 00:16:30;;;;;;;11.70;5.88;;;;;;;11.73;69.30;100701.94;2056345;28;20038;-71
2022/10/11 00:17:35;;;;;;;9.00;4.70;;;;;;;11.71;69.47;100702.22;2057108;28;20031;-71
2022/10/11 00:18:40;;;;;;;13.18;5.60;;;;;;;11.71;69.55;100704.13;2056280;28;20041;-71
2022/10/11 00:19:45;;;;;;;10.63;5.13;;;;;;;11.71;69.81;100702.22;2064922;28;20081;-70
2022/10/11 00:20:49;;;;;;;9.65;4.85;;;;;;;11.71;69.87;100704.13;2063722;28;20442;-71
2022/10/11 00:21:57;;;;;;;14.43;5.20;;;;;;;11.69;69.78;100711.66;2064964;28;20034;-71
2022/10/11 00:22:59;;;;;;;8.80;5.50;;;;;;;11.67;69.74;100703.09;2055849;28;20042;-71
2022/10/11 00:24:02;;;;;;;14.57;5.40;;;;;;;11.66;69.96;100704.94;2055134;28;20058;-71
2022/10/11 00:25:32;;;;;;;10.07;5.13;;;;;;;11.64;69.77;100704.44;2107430;27;20420;-71
2022/10/11 00:26:56;;;;;;;10.38;4.78;;;;;;;11.63;70.32;100702.81;2112933;27;20383;-70
2022/10/11 00:28:18;;;;;;;9.73;5.10;;;;;;;11.62;70.28;100709.28;2104179;27;20393;-71
2022/10/11 00:29:42;;;;;;;12.15;5.28;;;;;;;11.63;70.47;100702.81;2096184;28;20123;-70
2022/10/11 00:31:07;;;;;;;13.48;5.15;;;;;;;11.59;70.57;100702.56;2104669;27;20389;-69
2022/10/11 00:32:36;;;;;;;10.35;5.15;;;;;;;11.61;70.55;100705.00;2096161;28;20390;-70
2022/10/11 00:33:58;;;;;;;11.82;5.32;;;;;;;11.62;70.56;100706.59;2104458;27;20416;-71
2022/10/11 00:35:23;;;;;;;9.40;5.13;;;;;;;11.61;70.73;100707.69;2121556;27;20128;-72
2022/10/11 00:36:50;;;;;;;13.13;5.60;;;;;;;11.60;70.72;100708.75;1993812;27;3656995;-71
2022/10/11 00:38:13;;;;;;;9.27;5.05;;;;;;;11.59;71.09;100696.38;2104559;27;20400;-73
2022/10/11 00:39:38;;;;;;;9.93;5.30;;;;;;;11.58;70.97;100698.28;2112713;27;20104;-70
2022/10/11 00:41:06;;;;;;;10.15;4.80;;;;;;;11.58;71.11;100700.19;2095445;27;20383;-72
2022/10/11 00:42:25;;;;;;;15.68;5.65;;;;;;;11.58;70.90;100700.19;2104575;27;20385;-71
2022/10/11 00:43:47;;;;;;;11.73;5.63;;;;;;;11.58;71.69;100697.47;2112963;27;20751;-71
2022/10/11 00:45:26;;;;;;;9.20;5.45;;;;;;;11.60;71.81;100708.75;2104643;28;20397;-72
2022/10/11 00:47:10;;;;;;;11.30;5.22;;;;;;;11.59;71.56;100705.28;2113037;27;20988;-70
2022/10/11 00:48:36;;;;;;;11.13;4.90;;;;;;;11.60;71.64;100711.44;2104503;27;20736;-71
2022/10/11 00:50:02;;;;;;;10.18;5.50;;;;;;;11.57;71.85;100699.38;2113045;27;20914;-70
2022/10/11 00:51:36;;;;;;;9.18;5.43;;;;;;;11.56;72.35;100707.72;2104613;28;20396;-70
2022/10/11 00:53:05;;;;;;;12.95;5.88;;;;;;;11.55;72.18;100714.19;2104531;27;20397;-71
2022/10/11 00:54:39;;;;;;;11.98;5.50;;;;;;;11.56;72.26;100707.72;2112933;27;20424;-71
2022/10/11 00:56:15;;;;;;;12.98;5.60;;;;;;;11.55;72.33;100709.63;2096178;28;20761;-71
2022/10/11 00:57:38;;;;;;;14.90;5.90;;;;;;;11.55;72.72;100701.53;2104530;28;20385;-70
2022/10/11 00:59:00;;;;;;;16.23;5.80;;;;;;;11.54;72.73;100707.22;2104584;27;20392;-70
2022/10/11 01:00:32;;;;;;;10.70;5.38;;;;;;;11.56;72.71;100707.72;2078335;27;20405;-71
2022/10/11 01:01:59;;;;;;;13.93;5.82;;;;;;;11.56;72.74;100697.75;2104609;28;20385;-70
2022/10/11 01:03:26;;;;;;;14.65;6.03;;;;;;;11.59;73.13;100712.53;2104469;27;20757;-72
2022/10/11 01:04:53;;;;;;;15.20;5.82;;;;;;;11.60;73.35;100703.38;2096185;28;20763;-71
2022/10/11 01:06:14;;;;;;;10.52;5.38;;;;;;;11.63;73.00;100704.69;2104528;28;20393;-71
2022/10/11 01:07:40;;;;;;;12.85;6.25;;;;;;;11.64;73.21;100709.81;2104587;28;20385;-70
2022/10/11 01:09:19;;;;;;;13.27;5.90;;;;;;;11.60;73.12;100714.16;2096159;28;20391;-71
2022/10/11 01:10:45;;;;;;;18.10;6.00;;;;;;;11.59;73.18;100707.16;2100884;27;20418;-72
2022/10/11 01:12:19;;;;;;;11.45;5.38;;;;;;;11.61;73.55;100710.38;2104504;27;20389;-72
2022/10/11 01:14:19;;;;;;;12.90;5.43;;;;;;;11.65;73.40;100707.94;2096141;28;20390;-71
2022/10/11 01:16:11;;;;;;;14.40;5.35;;;;;;;11.68;73.26;100710.06;2104603;28;20396;-73
2022/10/11 01:17:43;;;;;;;12.40;5.43;;;;;;;11.68;73.30;100718.13;2096303;28;20901;-71
2022/10/11 01:19:15;;;;;;;11.70;5.75;;;;;;;11.71;73.20;100721.06;2121527;27;20104;-71
2022/10/11 01:20:57;;;;;;;9.85;5.35;;;;;;;11.69;73.13;100723.22;2113007;27;20395;-71
2022/10/11 01:22:39;;;;;;;12.90;5.82;;;;;;;11.71;73.52;100715.69;2096145;28;21073;-71
2022/10/11 01:24:14;;;;;;;11.65;5.72;;;;;;;11.71;73.56;100721.06;2112934;27;20394;-71
2022/10/11 01:25:58;;;;;;;16.02;5.90;;;;;;;11.75;73.55;100715.91;2110698;27;20391;-70
2022/10/11 01:27:37;;;;;;;10.15;5.57;;;;;;;11.75;73.52;100714.03;2104583;28;20400;-71
2022/10/11 01:29:33;;;;;;;11.95;5.40;;;;;;;11.75;73.32;100713.22;2104600;28;20388;-72
2022/10/11 01:31:03;;;;;;;14.95;7.28;;;;;;;11.75;73.58;100711.34;2112742;27;20426;-71
2022/10/11 01:32:37;;;;;;;9.90;5.47;;;;;;;11.71;73.57;100704.91;2104647;27;20389;-71
2022/10/11 01:34:13;;;;;;;12.68;5.82;;;;;;;11.72;73.65;100705.72;2097025;27;20400;-69
2022/10/11 01:35:58;;;;;;;11.10;6.15;;;;;;;11.73;73.74;100702.75;2104478;28;20393;-70
2022/10/11 01:37:23;;;;;;;16.70;6.18;;;;;;;11.78;73.63;100705.38;2104660;27;20393;-70
2022/10/11 01:39:02;;;;;;;13.95;5.78;;;;;;;11.78;73.68;100710.78;2112879;27;20384;-69
2022/10/11 01:40:33;;;;;;;12.13;5.60;;;;;;;11.79;74.02;100717.78;2104670;27;20390;-70
2022/10/11 01:41:59;;;;;;;13.07;5.45;;;;;;;11.80;73.99;100714.00;2104612;27;20393;-69
2022/10/11 01:43:43;;;;;;;13.43;5.88;;;;;;;11.82;73.93;100709.13;2104536;27;20385;-69
2022/10/11 01:45:07;;;;;;;16.48;6.35;;;;;;;11.83;73.93;100708.03;2112849;27;20166;-69
2022/10/11 01:46:29;;;;;;;13.50;6.30;;;;;;;11.86;73.93;100705.91;2104570;27;20397;-70
2022/10/11 01:48:09;;;;;;;16.55;6.05;;;;;;;11.86;73.96;100712.09;2121459;27;20381;-71
2022/10/11 01:49:33;;;;;;;13.95;5.88;;;;;;;11.87;73.71;100707.50;2104364;28;20408;-71
2022/10/11 01:51:03;;;;;;;12.05;5.80;;;;;;;11.89;74.06;100708.03;2104561;28;20397;-71
2022/10/11 01:52:29;;;;;;;12.25;5.70;;;;;;;11.92;74.04;100710.16;2104476;28;20404;-71
2022/10/11 01:54:31;;;;;;;9.45;5.35;;;;;;;11.94;74.05;100711.47;2112839;27;20395;-70
2022/10/11 01:55:58;;;;;;;9.18;5.22;;;;;;;11.95;73.85;100712.28;2093604;28;20391;-71
2022/10/11 01:57:57;;;;;;;10.68;5.47;;;;;;;11.93;73.75;100711.78;2096129;28;20395;-71
2022/10/11 01:59:35;;;;;;;9.40;5.40;;;;;;;11.92;74.21;100710.16;2112950;27;20697;-71
2022/10/11 02:01:16;;;;;;;12.73;5.63;;;;;;;11.93;74.18;100709.88;2104596;27;20397;-70
2022/10/11 02:02:55;;;;;;;13.15;5.47;;;;;;;11.93;74.12;100719.84;2113068;27;20387;-71
2022/10/11 02:04:30;;;;;;;10.63;5.47;;;;;;;11.95;73.89;100723.88;2112971;27;20413;-70
2022/10/11 02:06:27;;;;;;;13.15;5.55;;;;;;;11.95;74.25;100718.47;2096232;28;20414;-71
2022/10/11 02:08:03;;;;;;;14.05;5.80;;;;;;;11.91;74.22;100722.00;2104624;28;20392;-71
2022/10/11 02:09:35;;;;;;;13.43;5.88;;;;;;;11.88;74.21;100714.50;2104691;28;20393;-72
2022/10/11 02:11:20;;;;;;;11.73;5.43;;;;;;;11.87;74.20;100718.28;2103839;28;20393;-71
2022/10/11 02:12:47;;;;;;;9.98;5.35;;;;;;;11.84;74.03;100708.84;2104576;28;20400;-71
2022/10/11 02:14:10;;;;;;;13.52;5.53;;;;;;;11.82;74.34;100722.59;2001949;27;3710065;-71
2022/10/11 02:15:32;;;;;;;13.02;5.20;;;;;;;11.80;74.84;100719.38;2004297;27;3647506;-70
2022/10/11 02:16:56;;;;;;;10.65;5.28;;;;;;;11.76;74.84;100715.66;2112965;27;20417;-71
2022/10/11 02:18:28;;;;;;;13.43;6.55;;;;;;;11.72;74.78;100722.66;2112951;27;20392;-69
2022/10/11 02:19:56;;;;;;;12.38;5.43;;;;;;;11.67;74.94;100719.25;2104552;28;20404;-70
2022/10/11 02:21:31;;;;;;;13.43;5.18;;;;;;;11.62;75.29;100722.75;2096226;28;20735;-70
2022/10/11 02:22:59;;;;;;;11.35;5.43;;;;;;;11.57;75.66;100726.31;2112875;27;20402;-72
2022/10/11 02:24:26;;;;;;;12.18;5.20;;;;;;;11.51;75.46;100729.31;2112933;27;20387;-70
2022/10/11 02:25:48;;;;;;;12.80;5.22;;;;;;;11.48;75.78;100727.19;2112947;27;20117;-70
2022/10/11 02:27:12;;;;;;;12.50;5.28;;;;;;;11.45;76.04;100728.53;2088530;28;20760;-71
2022/10/11 02:28:38;;;;;;;10.25;5.30;;;;;;;11.39;76.53;100734.25;2104654;28;20400;-72
2022/10/11 02:30:09;;;;;;;11.38;5.03;;;;;;;11.36;76.47;100720.25;2112925;27;20387;-70
2022/10/11 02:31:33;;;;;;;10.93;5.25;;;;;;;11.35;76.72;100734.00;2104486;28;20910;-70
2022/10/11 02:32:57;;;;;;;10.38;5.18;;;;;;;11.35;77.12;100729.41;2104267;28;20404;-70
2022/10/11 02:34:45;;;;;;;10.63;4.95;;;;;;;11.36;77.05;100739.09;2121397;27;20417;-71
2022/10/11 02:36:33;;;;;;;9.50;4.82;;;;;;;11.35;77.21;100734.81;2008803;27;3518829;-71
2022/10/11 02:38:04;;;;;;;10.60;5.35;;;;;;;11.35;78.01;100737.50;2096164;28;20399;-70
2022/10/11 02:39:41;;;;;;;9.55;5.15;;;;;;;11.35;77.64;100729.41;2096040;28;20425;-72
2022/10/11 02:41:23;;;;;;;10.00;4.80;;;;;;;11.34;77.58;100732.38;2112238;27;20399;-72
2022/10/11 02:43:11;;;;;;;15.48;5.18;;;;;;;11.32;77.61;100740.75;2112958;27;20378;-72
2022/10/11 02:44:40;;;;;;;13.32;5.65;;;;;;;11.36;78.30;100735.59;2104356;27;20400;-69
2022/10/11 02:46:02;;;;;;;10.93;5.47;;;;;;;11.39;78.26;100739.63;2096152;28;20387;-70
2022/10/11 02:47:33;;;;;;;14.70;5.40;;;;;;;11.40;78.30;100743.91;2112886;27;20905;-70
2022/10/11 02:49:07;;;;;;;17.92;5.32;;;;;;;11.40;78.00;100747.41;2112981;27;20875;-71
2022/10/11 02:50:31;;;;;;;13.07;5.22;;;;;;;11.34;78.05;100748.53;2096221;28;20398;-71
2022/10/11 02:52:03;;;;;;;11.20;5.18;;;;;;;11.32;nan;100758.78;2112875;27;20319;-70
2022/10/11 02:53:32;;;;;;;11.77;4.93;;;;;;;11.32;78.60;100750.72;2104765;27;20889;-71
2022/10/11 02:54:54;;;;;;;11.90;5.50;;;;;;;11.35;78.79;100745.56;2096190;28;20854;-70
2022/10/11 02:56:27;;;;;;;13.77;4.93;;;;;;;11.40;78.67;100757.38;2093740;28;20387;-71
2022/10/11 02:57:50;;;;;;;9.85;5.13;;;;;;;11.34;79.17;100749.31;2096118;28;20387;-71
2022/10/11 02:59:16;;;;;;;11.30;4.80;;;;;;;11.31;79.39;100759.84;2121560;27;20442;-70
2022/10/11 03:00:36;;;;;;;9.82;4.95;;;;;;;11.28;79.42;100753.13;2113021;27;20384;-71
2022/10/11 03:02:05;;;;;;;11.70;4.85;;;;;;;11.28;79.67;100752.34;2112883;27;20410;-70
2022/10/11 03:03:23;;;;;;;9.07;4.85;;;;;;;11.28;79.93;100758.50;2029645;27;2932800;-70
2022/10/11 03:05:01;;;;;;;11.13;4.90;;;;;;;11.30;80.26;100756.34;2104383;27;20398;-71
2022/10/11 03:06:30;;;;;;;11.38;4.68;;;;;;;11.37;80.75;100758.75;2104466;27;20401;-71
2022/10/11 03:08:15;;;;;;;11.93;5.32;;;;;;;11.40;80.63;100755.50;2071465;28;20402;-70
2022/10/11 03:09:45;;;;;;;14.60;5.72;;;;;;;11.36;80.77;100765.22;2104611;28;20893;-71
2022/10/11 03:11:04;;;;;;;11.98;5.80;;;;;;;11.35;80.37;100767.09;2121465;27;20390;-71
2022/10/11 03:12:32;;;;;;;10.45;4.78;;;;;;;11.42;81.24;100771.38;2112717;27;20197;-71
2022/10/11 03:13:58;;;;;;;10.45;4.95;;;;;;;11.47;80.88;100776.72;2095891;27;20379;-71
2022/10/11 03:15:23;;;;;;;8.77;4.85;;;;;;;11.53;81.33;100768.31;2104286;28;20393;-72
2022/10/11 03:16:56;;;;;;;9.88;4.25;;;;;;;11.60;81.38;100774.22;2113041;27;20917;-71
2022/10/11 03:18:18;;;;;;;7.78;4.35;;;;;;;11.65;80.93;100765.28;2104420;27;20722;-72
2022/10/11 03:19:41;;;;;;;11.52;4.90;;;;;;;11.71;80.95;100766.06;2104614;28;20400;-71
2022/10/11 03:21:05;;;;;;;9.80;4.72;;;;;;;11.74;81.12;100777.06;2096122;28;20408;-72
2022/10/11 03:22:28;;;;;;;11.38;4.70;;;;;;;11.75;80.91;100773.28;2104586;28;20389;-71
2022/10/11 03:23:54;;;;;;;13.15;5.00;;;;;;;11.73;80.86;100772.78;2104516;27;20389;-71
2022/10/11 03:25:23;;;;;;;8.98;4.35;;;;;;;11.73;81.42;100772.78;2104487;27;20415;-70
2022/10/11 03:26:51;;;;;;;10.00;4.57;;;;;;;11.72;81.35;100773.84;2100676;28;20952;-70
2022/10/11 03:28:21;;;;;;;12.82;4.65;;;;;;;11.71;81.44;100780.34;2104329;27;20393;-69
2022/10/11 03:29:45;;;;;;;12.20;4.88;;;;;;;11.70;81.74;100778.72;2104593;28;20408;-68
2022/10/11 03:31:07;;;;;;;11.77;4.50;;;;;;;11.68;81.47;100780.09;2096219;28;20913;-69
2022/10/11 03:32:33;;;;;;;15.50;4.60;;;;;;;11.63;81.99;100780.91;2121470;27;20164;-69
2022/10/11 03:33:59;;;;;;;12.20;5.10;;;;;;;11.60;81.97;100786.84;2095758;28;20399;-70
2022/10/11 03:35:25;;;;;;;8.85;4.80;;;;;;;11.58;81.69;100781.78;2096376;28;20390;-69
2022/10/11 03:36:51;;;;;;;9.63;4.55;;;;;;;11.56;81.94;100783.94;2104742;28;21288;-69
2022/10/11 03:38:21;;;;;;;12.65;4.20;;;;;;;11.50;82.36;100789.63;2095905;28;20402;-69
2022/10/11 03:39:44;;;;;;;9.55;4.35;;;;;;;11.48;82.66;100789.13;2112943;27;20395;-69
2022/10/11 03:41:06;;;;;;;11.45;4.15;;;;;;;11.44;82.63;100785.34;2113047;27;20388;-70
2022/10/11 03:42:30;;;;;;;7.18;3.85;;;;;;;11.46;82.83;100791.28;2087773;28;20127;-69
2022/10/11 03:43:55;;;;;;;8.98;4.22;;;;;;;11.50;83.30;100790.41;2129974;27;20392;-70
2022/10/11 03:45:14;;;;;;;12.15;3.53;;;;;;;11.53;83.71;100789.06;2104527;28;20396;-69
2022/10/11 03:46:38;;;;;;;9.45;4.22;;;;;;;11.60;83.58;100797.63;2104479;28;20381;-70
2022/10/11 03:48:05;;;;;;;13.00;4.30;;;;;;;11.65;83.61;100788.72;2121405;27;20100;-70
2022/10/11 03:49:31;;;;;;;5.75;3.45;;;;;;;11.72;83.26;100791.91;2104503;28;20401;-70
2022/10/11 03:50:52;;;;;;;7.32;3.13;;;;;;;11.77;83.47;100806.16;2104492;28;20396;-70
2022/10/11 03:52:20;;;;;;;7.55;2.97;;;;;;;11.85;83.25;100798.56;2104470;27;20393;-71
2022/10/11 03:53:39;;;;;;;5.70;2.90;;;;;;;11.89;83.11;100808.53;1990961;27;3739640;-71
2022/10/11 03:54:58;;;;;;;8.23;3.47;;;;;;;11.96;83.36;100808.22;2104553;27;20386;-70
2022/10/11 03:56:23;;;;;;;5.97;3.22;;;;;;;11.97;82.87;100815.19;2104520;27;20389;-70
2022/10/11 03:57:50;;;;;;;7.80;3.35;;;;;;;12.00;83.25;100809.25;2095794;27;20433;-70
2022/10/11 03:59:20;;;;;;;6.97;3.30;;;;;;;12.06;82.95;100825.09;2112936;27;20376;-70
2022/10/11 04:00:42;;;;;;;8.93;3.15;;;;;;;12.09;82.96;100818.34;2112988;27;20406;-71
2022/10/11 04:02:05;;;;;;;7.53;2.92;;;;;;;12.09;82.48;100821.03;2112935;27;20323;-70
2022/10/11 04:03:25;;;;;;;8.88;3.05;;;;;;;12.11;82.24;100831.53;2112866;27;20384;-70
2022/10/11 04:04:52;;;;;;;10.52;3.28;;;;;;;12.12;82.45;100828.56;2104405;27;20393;-71
2022/10/11 04:06:15;;;;;;;4.72;2.72;;;;;;;12.10;82.03;100830.72;2104502;28;20404;-70
2022/10/11 04:07:38;;;;;;;5.10;2.50;;;;;;;12.08;82.04;100832.09;2104514;28;20405;-70
2022/10/11 04:09:04;;;;;;;6.85;2.50;;;;;;;12.04;82.13;100835.38;2104433;28;20393;-70
2022/10/11 04:10:33;;;;;;;4.93;2.40;;;;;;;12.02;82.36;100836.72;2130037;27;20388;-72
2022/10/11 04:11:55;;;;;;;7.47;2.42;;;;;;;12.01;82.23;100843.19;2112031;27;20720;-70
2022/10/11 04:13:14;;;;;;;6.40;2.13;;;;;;;11.98;82.22;100832.97;2112761;27;20395;-69
2022/10/11 04:14:35;;;;;;;3.28;2.10;;;;;;;11.98;82.37;100841.03;2104513;28;20397;-71
2022/10/11 04:16:12;;;;;;;3.65;1.92;;;;;;;11.90;82.38;100842.47;2112941;27;20747;-72
2022/10/11 04:17:35;;;;;;;3.92;1.90;;;;;;;11.89;82.65;100850.84;2112880;27;20391;-70
2022/10/11 04:18:55;;;;;;;5.28;2.10;;;;;;;11.87;82.45;100840.31;2112773;27;20426;-70
2022/10/11 04:20:20;;;;;;;4.88;2.20;;;;;;;11.85;82.40;100847.06;2104319;28;20401;-70
2022/10/11 04:21:40;;;;;;;4.60;1.73;;;;;;;11.85;82.38;100847.88;2104571;28;20408;-70
2022/10/11 04:23:20;;;;;;;5.32;1.83;;;;;;;11.78;82.48;100853.53;2113061;27;20395;-71
2022/10/11 04:24:56;;;;;;;5.55;2.20;;;;;;;11.75;82.73;100848.72;2112939;27;20395;-73
2022/10/11 04:26:19;;;;;;;4.25;1.63;;;;;;;11.70;82.64;100851.47;2104015;28;20397;-71
2022/10/11 04:27:47;;;;;;;6.18;1.67;;;;;;;11.71;82.85;100855.75;2096823;27;20410;-72
2022/10/11 04:29:09;;;;;;;7.80;1.63;;;;;;;11.70;83.35;100864.13;2104439;27;20399;-70
2022/10/11 04:30:28;;;;;;;2.55;1.40;;;;;;;11.65;82.92;100867.63;2104222;28;20400;-73
2022/10/11 04:31:51;;;;;;;8.68;1.73;;;;;;;11.64;83.20;100863.34;2096029;28;20402;-70
2022/10/11 04:33:11;;;;;;;5.53;1.67;;;;;;;11.62;83.19;100867.38;2093232;28;21220;-68
2022/10/11 04:34:39;;;;;;;4.65;1.42;;;;;;;11.59;82.91;100868.75;2121126;27;20160;-69
2022/10/11 04:36:12;;;;;;;5.80;1.45;;;;;;;11.57;83.05;100877.13;2104300;27;20385;-69
2022/10/11 04:37:32;;;;;;;4.35;1.42;;;;;;;11.53;83.50;100880.63;2112728;27;20395;-69
2022/10/11 04:39:00;;;;;;;6.30;1.30;;;;;;;11.51;82.97;100880.13;2104236;28;20389;-71
2022/10/11 04:40:28;;;;;;;4.43;1.50;;;;;;;11.45;82.97;100889.28;2104272;28;20400;-71
2022/10/11 04:41:56;;;;;;;8.82;1.27;;;;;;;11.42;83.32;100889.84;2104271;28;20396;-71
2022/10/11 04:43:24;;;;;;;4.45;1.30;;;;;;;11.41;83.10;100893.59;2104352;28;20385;-71
2022/10/11 04:44:46;;;;;;;6.18;1.60;;;;;;;11.40;83.30;100886.63;2104376;27;20389;-68
2022/10/11 04:46:15;;;;;;;6.28;1.40;;;;;;;11.35;83.31;100890.16;2103871;27;20722;-70
2022/10/11 04:47:39;;;;;;;4.75;1.40;;;;;;;11.31;83.32;100887.16;2095710;28;20402;-69
2022/10/11 04:49:05;;;;;;;9.98;1.30;;;;;;;11.28;83.17;100890.41;2103922;27;20393;-69
2022/10/11 04:50:33;;;;;;;5.80;1.25;;;;;;;11.24;82.95;100893.94;2104409;28;20404;-69
2022/10/11 04:52:00;;;;;;;7.50;1.00;;;;;;;11.21;82.95;100892.59;2103104;28;20416;-68
2022/10/11 04:53:27;;;;;;;5.20;1.70;;;;;;;11.18;83.07;100901.22;2094766;28;20406;-74
2022/10/11 04:54:52;;;;;;;5.55;1.10;;;;;;;11.19;83.24;100902.84;2103046;28;20401;-68
2022/10/11 04:56:17;;;;;;;8.90;1.73;;;;;;;11.12;82.91;100897.72;2103149;28;20400;-74
2022/10/11 04:57:41;;;;;;;7.93;1.40;;;;;;;11.10;83.06;100910.66;2099299;27;20407;-70
2022/10/11 04:59:06;;;;;;;1.52;0.82;;;;;;;11.10;83.40;100909.88;2119923;27;20399;-72
2022/10/11 05:00:32;;;;;;;2.92;1.10;;;;;;;11.06;83.40;100912.28;2120078;27;20164;-71
2022/10/11 05:01:55;;;;;;;2.05;0.90;;;;;;;11.09;83.55;100916.31;2094849;28;20863;-68
2022/10/11 05:03:20;;;;;;;6.07;1.02;;;;;;;11.06;83.71;100928.41;2111404;27;20395;-70
2022/10/11 05:04:40;;;;;;;7.43;1.33;;;;;;;11.02;83.22;100921.97;2111564;27;20743;-68
2022/10/11 05:06:01;;;;;;;4.63;0.90;;;;;;;11.01;83.37;100922.25;2094649;27;20410;-69
2022/10/11 05:07:23;;;;;;;8.75;1.40;;;;;;;11.05;83.25;100928.69;2103018;27;20397;-70
2022/10/11 05:08:45;;;;;;;7.05;0.98;;;;;;;11.07;83.47;100931.94;2103218;28;20393;-74
2022/10/11 05:10:11;;;;;;;4.55;1.25;;;;;;;11.10;83.10;100936.78;2111598;27;20393;-73
2022/10/11 05:11:42;;;;;;;2.55;0.90;;;;;;;11.10;83.10;100947.53;2119661;27;20778;-72
2022/10/11 05:13:05;;;;;;;5.57;1.13;;;;;;;11.10;82.57;100942.97;2099508;27;20400;-71
2022/10/11 05:14:28;;;;;;;6.30;0.88;;;;;;;11.11;82.73;100949.16;2103011;27;20428;-73
2022/10/11 05:15:57;;;;;;;6.15;0.85;;;;;;;11.13;82.31;100947.81;2111474;27;20695;-71
2022/10/11 05:17:23;;;;;;;11.13;1.50;;;;;;;11.20;82.52;100952.91;2103271;28;20404;-71
2022/10/11 05:18:46;;;;;;;6.03;1.13;;;;;;;11.28;82.55;100955.00;2103029;28;20397;-72
2022/10/11 05:20:13;;;;;;;3.13;0.90;;;;;;;11.34;82.07;100959.31;2102966;27;20920;-72
2022/10/11 05:21:42;;;;;;;5.40;0.73;;;;;;;11.41;81.97;100959.00;2102184;28;20393;-71
2022/10/11 05:23:05;;;;;;;4.18;0.98;;;;;;;11.43;81.54;100966.84;2093846;28;20416;-72
2022/10/11 05:24:27;;;;;;;6.15;1.10;;;;;;;11.45;81.49;100964.69;2102473;27;20413;-73
2022/10/11 05:25:46;;;;;;;5.20;0.90;;;;;;;11.48;81.12;100972.22;2002140;27;3571638;-71
2022/10/11 05:27:11;;;;;;;3.60;1.08;;;;;;;11.55;80.44;100967.34;2110897;27;20399;-71
2022/10/11 05:28:33;;;;;;;1.80;0.60;;;;;;;11.58;79.82;100975.66;2097794;27;20417;-71
2022/10/11 05:29:59;;;;;;;6.28;1.00;;;;;;;11.64;80.01;100968.38;2103113;28;20390;-72
2022/10/11 05:31:24;;;;;;;7.57;0.90;;;;;;;11.70;79.55;100972.66;2103168;27;20848;-72
2022/10/11 05:32:50;;;;;;;8.90;0.90;;;;;;;11.75;79.36;100975.31;2103097;28;20794;-72
2022/10/11 05:34:15;;;;;;;5.30;1.33;;;;;;;12.18;78.41;100978.38;2111837;27;20716;-71
2022/10/11 05:35:39;;;;;;;4.32;1.00;;;;;;;12.86;76.92;100982.19;2111916;27;20386;-72
2022/10/11 05:37:06;;;;;;;3.13;0.70;;;;;;;13.55;75.56;100983.69;2095808;28;20443;-74
2022/10/11 05:38:30;;;;;;;9.32;1.40;;;;;;;14.13;73.70;100986.22;2121412;27;20416;-72
2022/10/11 05:39:59;;;;;;;8.30;1.13;;;;;;;14.69;71.97;100989.19;2112844;27;20391;-71
2022/10/11 05:41:24;;;;;;;5.38;1.00;;;;;;;15.19;70.05;100992.13;2095812;27;20402;-72
2022/10/11 05:42:43;;;;;;;3.85;1.00;;;;;;;15.73;68.33;100990.59;2031716;27;2697974;-71
2022/10/11 05:44:07;;;;;;;6.65;1.10;;;;;;;16.11;66.93;100995.75;2112634;27;20426;-72
2022/10/11 05:45:31;;;;;;;6.75;1.00;;;;;;;16.45;65.02;100990.63;2125599;27;20390;-72
2022/10/11 05:47:00;;;;;;;6.38;1.17;;;;;;;16.99;63.01;101003.47;2116215;27;20387;-71
2022/10/11 05:48:27;;;;;;;5.28;1.13;;;;;;;17.37;61.55;101003.88;2104330;27;20404;-73
2022/10/11 05:49:50;;;;;;;5.18;1.13;;;;;;;17.63;60.00;101006.69;2095873;28;20897;-72
2022/10/11 05:51:15;;;;;;;4.60;1.30;;;;;;;17.65;58.82;101003.63;2104139;27;20393;-71
2022/10/11 05:52:40;;;;;;;4.43;1.00;;;;;;;17.90;58.13;101002.13;2104398;27;20393;-72
2022/10/11 05:54:03;;;;;;;5.53;1.50;;;;;;;17.93;57.50;101004.22;2121016;27;20386;-72
2022/10/11 05:55:24;;;;;;;5.88;1.75;;;;;;;18.18;57.14;101011.63;2104240;27;20390;-72
2022/10/11 05:56:50;;;;;;;4.65;1.23;;;;;;;18.24;56.73;101007.63;2103978;27;20389;-72
2022/10/11 05:58:11;;;;;;;11.43;1.40;;;;;;;18.62;55.99;101017.88;2100916;27;20406;-72
2022/10/11 05:59:42;;;;;;;6.95;1.10;;;;;;;18.85;54.96;101018.53;2104248;27;20396;-72
2022/10/11 06:01:18;;;;;;;4.13;1.05;;;;;;;18.93;54.10;101020.44;2112665;27;20391;-72
2022/10/11 06:02:42;;;;;;;2.40;0.90;;;;;;;19.05;53.79;101017.06;2095616;28;20399;-71
2022/10/11 06:04:05;;;;;;;7.22;1.10;;;;;;;19.37;53.36;101018.41;2111952;27;20379;-72
2022/10/11 06:05:30;;;;;;;4.47;1.23;;;;;;;19.73;52.65;101024.53;2104289;28;20405;-71
2022/10/11 06:06:58;;;;;;;3.97;1.20;;;;;;;19.96;51.68;101028.59;2104303;27;20745;-72
2022/10/11 06:08:28;;;;;;;5.70;1.30;;;;;;;20.36;50.33;101025.41;2112739;27;20396;-71
2022/10/11 06:09:52;;;;;;;4.38;0.90;;;;;;;20.56;49.42;101032.03;2112826;27;20376;-72
2022/10/11 06:11:21;;;;;;;6.25;0.90;;;;;;;20.88;48.39;101035.91;2112708;27;20109;-72
2022/10/11 06:13:00;;;;;;;8.57;1.33;;;;;;;20.96;47.82;101035.00;2103513;27;20395;-72
2022/10/11 06:14:38;;;;;;;10.00;1.10;;;;;;;21.35;47.39;101038.34;2121122;27;20367;-72
2022/10/11 06:16:26;;;;;;;6.90;1.52;;;;;;;21.90;46.29;101042.44;2122380;27;20506;-72
2022/10/11 06:18:25;;;;;;;7.78;1.10;;;;;;;22.27;44.83;101045.19;2104870;27;20391;-72
2022/10/11 06:20:12;;;;;;;7.28;1.23;;;;;;;22.99;43.89;101047.25;2128908;27;20375;-71
2022/10/11 06:21:56;;;;;;;4.53;1.33;;;;;;;23.72;42.45;101052.25;2147236;27;20876;-71
2022/10/11 06:23:31;;;;;;;10.63;1.50;;;;;;;24.08;41.01;101050.31;2116365;27;20455;-71
2022/10/11 06:25:09;;;;;;;18.70;1.52;;;;;;;24.56;40.00;101048.25;2129720;27;20127;-73
2022/10/11 06:26:55;;;;;;;7.97;1.95;;;;;;;24.64;39.08;101049.97;2128483;27;20444;-72
2022/10/11 06:28:38;;;;;;;6.88;1.45;;;;;;;25.07;37.83;101050.81;2118418;27;20464;-71
2022/10/11 06:30:29;;;;;;;7.40;1.60;;;;;;;25.56;37.23;101054.81;2124922;27;20458;-72
2022/10/11 06:32:04;;;;;;;7.38;1.13;;;;;;;25.75;36.78;101054.72;2148363;27;20386;-72
2022/10/11 06:33:43;;;;;;;3.22;1.05;;;;;;;25.66;36.19;101060.50;2148110;27;20402;-72
2022/10/11 06:35:40;;;;;;;6.05;1.25;;;;;;;26.39;35.56;101070.59;2124438;27;20395;-72
2022/10/11 06:37:26;;;;;;;6.30;1.20;;;;;;;26.93;35.07;101070.13;2124387;27;20403;-72
2022/10/11 06:39:16;;;;;;;4.22;1.40;;;;;;;27.38;33.87;101075.72;2130107;27;20386;-71
2022/10/11 06:41:07;;;;;;;6.25;1.30;;;;;;;27.87;33.39;101069.00;2130058;27;20905;-71
2022/10/11 06:42:47;;;;;;;7.10;1.30;;;;;;;27.99;32.47;101065.94;2148382;27;20383;-72
2022/10/11 06:44:36;;;;;;;6.97;1.48;;;;;;;28.62;32.29;101080.50;2122466;27;20752;-72